createdAt,value
2023-02-04T00:00:23.111Z,100136.34
2023-02-04T00:02:50.606Z,100133.75
2023-02-04T00:05:18.725Z,100137.72
2023-02-04T00:07:45.304Z,100142.06
2023-02-04T00:10:11.971Z,100145.44
2023-02-04T00:12:38.482Z,100141.78
2023-02-04T00:15:06.114Z,100144.47
2023-02-04T00:17:32.861Z,100140.69
2023-02-04T00:19:59.325Z,100144.31
2023-02-04T00:22:28.223Z,100135.16
2023-02-04T00:24:54.776Z,100133.03
2023-02-04T00:27:21.279Z,100132.47
2023-02-04T00:29:47.812Z,100137.94
2023-02-04T00:32:14.434Z,100141.63
2023-02-04T00:34:41.260Z,100139.91
2023-02-04T00:37:07.994Z,100138.13
2023-02-04T00:39:34.497Z,100142.91
2023-02-04T00:42:01.035Z,100151.59
2023-02-04T00:44:27.578Z,100154.75
2023-02-04T00:46:54.115Z,100148.19
2023-02-04T00:49:20.629Z,100147.22
2023-02-04T00:51:47.188Z,100147.00
2023-02-04T00:54:15.810Z,100148.84
2023-02-04T00:56:42.687Z,100149.31
2023-02-04T00:59:09.229Z,100150.81
2023-02-04T01:01:35.789Z,100145.97
2023-02-04T01:04:02.496Z,100137.44
2023-02-04T01:06:28.946Z,100147.31
2023-02-04T01:08:55.428Z,100146.47
2023-02-04T01:11:21.919Z,100133.56
2023-02-04T01:13:48.494Z,100132.19
2023-02-04T01:16:15.150Z,100133.50
2023-02-04T01:18:41.678Z,100143.69
2023-02-04T01:21:08.181Z,100144.06
2023-02-04T01:23:34.668Z,100152.09
2023-02-04T01:26:01.194Z,100152.28
2023-02-04T01:28:28.115Z,100161.13
2023-02-04T01:30:54.864Z,100168.81
2023-02-04T01:33:22.116Z,100162.72
2023-02-04T01:35:48.813Z,100164.56
2023-02-04T01:38:15.401Z,100161.16
2023-02-04T01:40:42.732Z,100143.69
2023-02-04T01:43:10.191Z,100148.69
2023-02-04T01:45:37.051Z,100150.06
2023-02-04T01:48:05.674Z,100149.06
2023-02-04T01:50:33.215Z,100142.88
2023-02-04T01:53:00.258Z,100143.34
2023-02-04T01:55:31.352Z,100139.31
2023-02-04T01:57:59.032Z,100145.66
2023-02-04T02:00:32.282Z,100140.66
2023-02-04T02:02:59.944Z,100146.31
2023-02-04T02:05:26.455Z,100146.50
2023-02-04T02:07:56.037Z,100145.38
2023-02-04T02:10:22.911Z,100135.97
2023-02-04T02:12:49.663Z,100133.94
2023-02-04T02:15:17.160Z,100135.81
2023-02-04T02:17:43.926Z,100129.13
2023-02-04T02:20:13.354Z,100134.88
2023-02-04T02:22:55.932Z,100133.66
2023-02-04T02:25:22.438Z,100129.13
2023-02-04T02:27:49.364Z,100127.41
2023-02-04T02:30:17.731Z,100129.22
2023-02-04T02:32:46.065Z,100127.56
2023-02-04T02:35:13.701Z,100116.13
2023-02-04T02:37:40.279Z,100102.75
2023-02-04T02:40:07.924Z,100097.97
2023-02-04T02:42:35.037Z,100092.69
2023-02-04T02:45:05.671Z,100096.38
2023-02-04T02:47:32.464Z,100099.91
2023-02-04T02:49:59.138Z,100096.75
2023-02-04T02:52:25.618Z,100098.44
2023-02-04T02:54:53.636Z,100089.75
2023-02-04T02:57:22.643Z,100082.09
2023-02-04T02:59:49.568Z,100094.44
2023-02-04T03:02:22.738Z,100097.78
2023-02-04T03:04:57.821Z,100095.38
2023-02-04T03:07:24.542Z,100100.16
2023-02-04T03:09:53.581Z,100101.94
2023-02-04T03:12:20.324Z,100108.84
2023-02-04T03:14:47.028Z,100107.34
2023-02-04T03:17:13.656Z,100109.88
2023-02-04T03:19:40.463Z,100107.28
2023-02-04T03:22:07.805Z,100115.22
2023-02-04T03:24:36.105Z,100105.34
2023-02-04T03:27:03.351Z,100104.59
2023-02-04T03:29:30.050Z,100108.84
2023-02-04T03:31:59.901Z,100117.25
2023-02-04T03:34:26.559Z,100111.53
2023-02-04T03:36:53.133Z,100110.78
2023-02-04T03:39:19.645Z,100106.00
2023-02-04T03:41:46.101Z,100113.91
2023-02-04T03:44:12.605Z,100125.25
2023-02-04T03:46:39.077Z,100122.06
2023-02-04T03:49:05.604Z,100128.59
2023-02-04T03:51:32.082Z,100137.63
2023-02-04T03:53:58.610Z,100136.63
2023-02-04T03:56:25.119Z,100136.78
2023-02-04T03:58:51.576Z,100147.94
2023-02-04T04:01:18.091Z,100152.56
2023-02-04T04:03:44.617Z,100150.91
2023-02-04T04:06:11.160Z,100141.53
2023-02-04T04:08:38.741Z,100146.50
2023-02-04T04:11:05.335Z,100133.22
2023-02-04T04:13:31.853Z,100138.47
2023-02-04T04:15:58.404Z,100130.25
2023-02-04T04:18:24.934Z,100132.75
2023-02-04T04:20:51.376Z,100128.47
2023-02-04T04:23:17.813Z,100135.97
2023-02-04T04:25:44.341Z,100131.75
2023-02-04T04:28:11.476Z,100128.03
2023-02-04T04:30:38.103Z,100125.09
2023-02-04T04:33:04.650Z,100126.31
2023-02-04T04:35:31.167Z,100135.31
2023-02-04T04:37:57.722Z,100129.06
2023-02-04T04:40:24.202Z,100133.84
2023-02-04T04:42:50.698Z,100133.38
2023-02-04T04:45:17.286Z,100127.13
2023-02-04T04:47:43.728Z,100130.25
2023-02-04T04:50:10.365Z,100132.25
2023-02-04T04:52:36.951Z,100127.28
2023-02-04T04:55:04.559Z,100116.56
2023-02-04T04:57:31.407Z,100129.50
2023-02-04T04:59:57.945Z,100123.31
2023-02-04T05:02:24.428Z,100111.97
2023-02-04T05:04:50.981Z,100100.91
2023-02-04T05:07:17.705Z,100110.78
2023-02-04T05:09:44.157Z,100109.22
2023-02-04T05:12:10.630Z,100116.88
2023-02-04T05:14:37.413Z,100121.47
2023-02-04T05:17:03.931Z,100130.53
2023-02-04T05:19:30.440Z,100121.84
2023-02-04T05:21:57.564Z,100129.97
2023-02-04T05:24:24.176Z,100129.69
2023-02-04T05:26:50.628Z,100132.63
2023-02-04T05:29:17.075Z,100132.63
2023-02-04T05:31:43.604Z,100137.00
2023-02-04T05:34:10.248Z,100136.34
2023-02-04T05:36:36.715Z,100129.22
2023-02-04T05:39:03.416Z,100134.31
2023-02-04T05:41:29.870Z,100139.31
2023-02-04T05:43:56.344Z,100138.63
2023-02-04T05:46:22.931Z,100132.91
2023-02-04T05:48:49.414Z,100145.66
2023-02-04T05:51:15.920Z,100150.25
2023-02-04T05:53:42.404Z,100147.88
2023-02-04T05:56:08.855Z,100150.09
2023-02-04T05:58:35.365Z,100154.41
2023-02-04T06:01:03.140Z,100164.13
2023-02-04T06:03:30.956Z,100161.63
2023-02-04T06:05:57.453Z,100163.28
2023-02-04T06:08:24.580Z,100166.59
2023-02-04T06:10:51.135Z,100161.25
2023-02-04T06:13:17.602Z,100164.97
2023-02-04T06:15:44.078Z,100166.25
2023-02-04T06:18:10.656Z,100160.16
2023-02-04T06:20:37.204Z,100162.09
2023-02-04T06:23:03.749Z,100164.16
2023-02-04T06:25:30.434Z,100167.19
2023-02-04T06:27:56.941Z,100158.78
2023-02-04T06:30:23.447Z,100154.72
2023-02-04T06:32:50.068Z,100158.28
2023-02-04T06:35:16.731Z,100151.66
2023-02-04T06:37:43.597Z,100148.69
2023-02-04T06:40:11.541Z,100150.25
2023-02-04T06:42:38.065Z,100146.31
2023-02-04T06:45:05.208Z,100151.66
2023-02-04T06:47:31.760Z,100142.50
2023-02-04T06:49:58.342Z,100156.63
2023-02-04T06:52:24.938Z,100151.72
2023-02-04T06:54:51.483Z,100151.66
2023-02-04T06:57:18.084Z,100148.44
2023-02-04T06:59:44.648Z,100152.94
2023-02-04T07:02:12.171Z,100159.78
2023-02-04T07:04:38.771Z,100159.16
2023-02-04T07:07:05.431Z,100163.75
2023-02-04T07:09:31.985Z,100160.06
2023-02-04T07:11:58.475Z,100170.97
2023-02-04T07:14:24.927Z,100165.69
2023-02-04T07:16:51.428Z,100162.56
2023-02-04T07:19:19.611Z,100167.16
2023-02-04T07:21:47.335Z,100176.03
2023-02-04T07:24:13.814Z,100174.19
2023-02-04T07:26:40.467Z,100181.38
2023-02-04T07:29:10.283Z,100190.41
2023-02-04T07:31:41.086Z,100190.59
2023-02-04T07:34:07.659Z,100191.72
2023-02-04T07:36:34.177Z,100194.41
2023-02-04T07:39:00.780Z,100201.59
2023-02-04T07:41:27.259Z,100211.81
2023-02-04T07:43:53.747Z,100209.13
2023-02-04T07:46:20.253Z,100207.78
2023-02-04T07:48:46.791Z,100213.84
2023-02-04T07:51:13.342Z,100211.94
2023-02-04T07:53:39.949Z,100206.75
2023-02-04T07:56:06.667Z,100206.75
2023-02-04T07:58:33.161Z,100205.03
2023-02-04T08:00:59.708Z,100199.00
2023-02-04T08:03:26.213Z,100190.91
2023-02-04T08:05:53.161Z,100185.19
2023-02-04T08:08:20.330Z,100186.84
2023-02-04T08:10:46.970Z,100180.09
2023-02-04T08:13:13.514Z,100171.53
2023-02-04T08:15:40.066Z,100175.84
2023-02-04T08:18:06.667Z,100173.53
2023-02-04T08:20:33.617Z,100175.41
2023-02-04T08:23:00.344Z,100163.47
2023-02-04T08:25:26.924Z,100177.91
2023-02-04T08:27:53.596Z,100176.22
2023-02-04T08:30:20.202Z,100182.63
2023-02-04T08:32:46.719Z,100181.19
2023-02-04T08:35:13.327Z,100185.06
2023-02-04T08:37:40.787Z,100182.31
2023-02-04T08:40:07.640Z,100178.72
2023-02-04T08:42:34.850Z,100178.25
2023-02-04T08:45:01.664Z,100177.53
2023-02-04T08:47:28.130Z,100183.59
2023-02-04T08:49:55.728Z,100174.00
2023-02-04T08:52:22.224Z,100181.03
2023-02-04T08:54:48.690Z,100196.59
2023-02-04T08:57:15.261Z,100195.41
2023-02-04T08:59:41.804Z,100205.38
2023-02-04T09:02:09.819Z,100203.19
2023-02-04T09:04:36.380Z,100214.25
2023-02-04T09:07:03.462Z,100213.84
2023-02-04T09:09:30.012Z,100215.13
2023-02-04T09:11:56.527Z,100210.13
2023-02-04T09:14:23.007Z,100212.06
2023-02-04T09:16:49.472Z,100216.91
2023-02-04T09:19:16.661Z,100217.84
2023-02-04T09:21:43.134Z,100213.22
2023-02-04T09:24:09.638Z,100220.31
2023-02-04T09:26:36.205Z,100216.16
2023-02-04T09:29:02.683Z,100218.28
2023-02-04T09:31:29.202Z,100225.94
2023-02-04T09:33:55.893Z,100224.78
2023-02-04T09:36:22.553Z,100219.69
2023-02-04T09:38:49.117Z,100222.44
2023-02-04T09:41:15.713Z,100229.47
2023-02-04T09:43:44.952Z,100231.97
2023-02-04T09:46:30.866Z,100220.78
2023-02-04T09:48:59.390Z,100226.22
2023-02-04T09:51:28.365Z,100228.78
2023-02-04T09:54:05.878Z,100234.34
2023-02-04T09:56:32.898Z,100232.13
2023-02-04T09:58:59.346Z,100237.97
2023-02-04T10:01:27.064Z,100234.81
2023-02-04T10:03:59.352Z,100236.59
2023-02-04T10:06:26.006Z,100244.41
2023-02-04T10:08:53.962Z,100244.78
2023-02-04T10:11:22.181Z,100250.81
2023-02-04T10:13:51.369Z,100247.50
2023-02-04T10:16:30.941Z,100251.06
2023-02-04T10:18:59.922Z,100252.06
2023-02-04T10:21:32.403Z,100258.69
2023-02-04T10:24:02.520Z,100257.00
2023-02-04T10:26:31.226Z,100258.63
2023-02-04T10:29:13.273Z,100256.28
2023-02-04T10:31:43.278Z,100255.97
2023-02-04T10:34:14.195Z,100256.50
2023-02-04T10:36:43.252Z,100254.47
2023-02-04T10:39:24.919Z,100263.56
2023-02-04T10:41:55.412Z,100256.06
2023-02-04T10:44:30.949Z,100256.28
2023-02-04T10:47:00.622Z,100248.72
2023-02-04T10:49:27.132Z,100248.22
2023-02-04T10:51:53.971Z,100251.28
2023-02-04T10:54:30.778Z,100248.53
2023-02-04T10:57:15.877Z,100249.56
2023-02-04T10:59:43.348Z,100237.91
2023-02-04T11:02:34.256Z,100249.31
2023-02-04T11:05:01.498Z,100250.75
2023-02-04T11:07:29.217Z,100252.38
2023-02-04T11:09:57.149Z,100252.03
2023-02-04T11:12:40.215Z,100251.22
2023-02-04T11:15:07.967Z,100246.91
2023-02-04T11:17:35.303Z,100247.44
2023-02-04T11:20:17.318Z,100250.97
2023-02-04T11:22:46.949Z,100246.16
2023-02-04T11:25:34.447Z,100246.91
2023-02-04T11:28:01.262Z,100242.66
2023-02-04T11:30:33.526Z,100250.00
2023-02-04T11:33:05.799Z,100247.97
2023-02-04T11:35:33.567Z,100255.84
2023-02-04T11:38:00.328Z,100256.81
2023-02-04T11:40:49.709Z,100256.94
2023-02-04T11:43:16.524Z,100244.56
2023-02-04T11:45:43.809Z,100253.50
2023-02-04T11:48:14.672Z,100247.03
2023-02-04T11:50:41.850Z,100251.22
2023-02-04T11:53:12.055Z,100257.16
2023-02-04T11:55:47.295Z,100265.56
2023-02-04T11:58:20.368Z,100273.81
2023-02-04T12:00:47.289Z,100264.28
2023-02-04T12:03:34.152Z,100265.97
2023-02-04T12:06:00.757Z,100262.53
2023-02-04T12:08:32.085Z,100258.31
2023-02-04T12:10:58.507Z,100258.25
2023-02-04T12:13:25.471Z,100249.69
2023-02-04T12:15:55.681Z,100252.13
2023-02-04T12:18:22.445Z,100253.31
2023-02-04T12:20:48.932Z,100246.41
2023-02-04T12:23:15.417Z,100235.41
2023-02-04T12:25:41.936Z,100248.81
2023-02-04T12:28:08.447Z,100249.34
2023-02-04T12:30:36.088Z,100250.41
2023-02-04T12:33:02.545Z,100247.16
2023-02-04T12:35:28.998Z,100253.75
2023-02-04T12:37:55.535Z,100244.59
2023-02-04T12:40:22.278Z,100254.38
2023-02-04T12:42:48.924Z,100254.69
2023-02-04T12:45:16.730Z,100262.25
2023-02-04T12:47:43.890Z,100262.44
2023-02-04T12:50:13.019Z,100255.72
2023-02-04T12:52:39.576Z,100252.28
2023-02-04T12:55:08.198Z,100265.50
2023-02-04T12:57:35.345Z,100259.84
2023-02-04T13:00:01.942Z,100258.19
2023-02-04T13:02:29.220Z,100254.28
2023-02-04T13:04:56.309Z,100257.53
2023-02-04T13:07:23.214Z,100251.41
2023-02-04T13:09:49.733Z,100256.78
2023-02-04T13:12:16.299Z,100248.72
2023-02-04T13:14:43.035Z,100263.56
2023-02-04T13:17:09.798Z,100257.50
2023-02-04T13:19:37.100Z,100267.25
2023-02-04T13:22:03.952Z,100255.19
2023-02-04T13:24:30.522Z,100258.94
2023-02-04T13:26:57.257Z,100261.31
2023-02-04T13:29:23.786Z,100264.50
2023-02-04T13:31:51.156Z,100258.94
2023-02-04T13:34:17.953Z,100263.97
2023-02-04T13:36:44.524Z,100262.22
2023-02-04T13:39:11.578Z,100266.69
2023-02-04T13:41:38.215Z,100270.69
2023-02-04T13:44:05.320Z,100271.88
2023-02-04T13:46:32.074Z,100277.16
2023-02-04T13:48:58.638Z,100289.00
2023-02-04T13:51:25.316Z,100283.44
2023-02-04T13:53:52.059Z,100285.88
2023-02-04T13:56:18.600Z,100279.41
2023-02-04T13:58:45.531Z,100285.75
2023-02-04T14:01:13.779Z,100285.75
2023-02-04T14:03:42.812Z,100281.22
2023-02-04T14:06:09.758Z,100289.44
2023-02-04T14:08:36.381Z,100290.69
2023-02-04T14:11:02.862Z,100284.53
2023-02-04T14:13:29.298Z,100288.25
2023-02-04T14:15:55.870Z,100292.19
2023-02-04T14:18:22.544Z,100300.72
2023-02-04T14:20:49.239Z,100299.06
2023-02-04T14:23:15.780Z,100291.28
2023-02-04T14:25:42.305Z,100300.34
2023-02-04T14:28:08.984Z,100294.88
2023-02-04T14:30:35.870Z,100300.22
2023-02-04T14:33:02.703Z,100307.09
2023-02-04T14:35:29.216Z,100309.66
2023-02-04T14:37:55.686Z,100306.34
2023-02-04T14:40:22.312Z,100302.66
2023-02-04T14:42:48.912Z,100302.72
2023-02-04T14:45:15.566Z,100295.53
2023-02-04T14:47:42.521Z,100303.19
2023-02-04T14:50:13.463Z,100306.69
2023-02-04T14:52:39.939Z,100301.28
2023-02-04T14:55:06.925Z,100306.47
2023-02-04T14:57:33.434Z,100310.53
2023-02-04T14:59:59.939Z,100313.00
2023-02-04T15:02:26.554Z,100308.28
2023-02-04T15:04:53.090Z,100321.28
2023-02-04T15:07:19.543Z,100312.09
2023-02-04T15:09:46.087Z,100316.16
2023-02-04T15:12:12.592Z,100317.09
2023-02-04T15:14:39.132Z,100314.69
2023-02-04T15:17:05.603Z,100315.88
2023-02-04T15:19:32.080Z,100322.06
2023-02-04T15:21:58.523Z,100326.22
2023-02-04T15:24:26.759Z,100320.03
2023-02-04T15:26:53.320Z,100311.31
2023-02-04T15:29:19.834Z,100317.09
2023-02-04T15:31:46.584Z,100322.38
2023-02-04T15:34:13.480Z,100312.84
2023-02-04T15:36:40.240Z,100314.06
2023-02-04T15:39:06.835Z,100320.78
2023-02-04T15:41:33.349Z,100319.38
2023-02-04T15:44:00.013Z,100319.78
2023-02-04T15:46:26.602Z,100317.88
2023-02-04T15:48:53.332Z,100311.84
2023-02-04T15:51:19.819Z,100319.53
2023-02-04T15:53:46.281Z,100320.53
2023-02-04T15:56:12.731Z,100319.41
2023-02-04T15:58:39.916Z,100326.44
2023-02-04T16:01:06.595Z,100333.72
2023-02-04T16:03:33.134Z,100325.66
2023-02-04T16:05:59.823Z,100329.47
2023-02-04T16:08:26.338Z,100327.44
2023-02-04T16:11:01.821Z,100334.59
2023-02-04T16:13:28.692Z,100326.28
2023-02-04T16:15:55.268Z,100332.66
2023-02-04T16:18:23.957Z,100326.47
2023-02-04T16:20:50.413Z,100329.31
2023-02-04T16:23:16.907Z,100340.25
2023-02-04T16:25:43.375Z,100343.50
2023-02-04T16:28:10.207Z,100342.25
2023-02-04T16:30:36.844Z,100341.88
2023-02-04T16:33:03.480Z,100350.91
2023-02-04T16:35:30.171Z,100341.75
2023-02-04T16:37:56.847Z,100348.94
2023-02-04T16:40:23.441Z,100350.53
2023-02-04T16:42:49.988Z,100349.63
2023-02-04T16:45:16.819Z,100358.50
2023-02-04T16:47:43.343Z,100345.09
2023-02-04T16:50:10.656Z,100351.84
2023-02-04T16:52:37.112Z,100355.72
2023-02-04T16:55:03.617Z,100358.03
2023-02-04T16:57:30.260Z,100358.78
2023-02-04T16:59:56.801Z,100371.53
2023-02-04T17:02:23.330Z,100368.97
2023-02-04T17:04:49.988Z,100370.69
2023-02-04T17:07:16.510Z,100370.75
2023-02-04T17:09:43.765Z,100370.56
2023-02-04T17:12:10.335Z,100373.25
2023-02-04T17:14:38.892Z,100380.09
2023-02-04T17:17:05.401Z,100382.94
2023-02-04T17:19:31.939Z,100375.28
2023-02-04T17:21:59.732Z,100377.59
2023-02-04T17:24:26.206Z,100372.47
2023-02-04T17:26:52.653Z,100380.31
2023-02-04T17:29:21.861Z,100382.34
2023-02-04T17:31:48.850Z,100377.00
2023-02-04T17:34:15.401Z,100376.06
2023-02-04T17:36:41.857Z,100379.72
2023-02-04T17:39:08.585Z,100388.94
2023-02-04T17:41:35.064Z,100376.75
2023-02-04T17:44:03.308Z,100389.50
2023-02-04T17:46:30.076Z,100382.81
2023-02-04T17:48:58.646Z,100384.94
2023-02-04T17:51:25.362Z,100382.56
2023-02-04T17:53:52.352Z,100391.88
2023-02-04T17:56:19.011Z,100391.41
2023-02-04T17:58:46.054Z,100390.94
2023-02-04T18:01:15.493Z,100394.56
2023-02-04T18:03:46.539Z,100394.03
2023-02-04T18:06:27.289Z,100393.22
2023-02-04T18:09:01.332Z,100390.81
2023-02-04T18:11:32.940Z,100394.47
2023-02-04T18:14:30.741Z,100397.81
2023-02-04T18:16:58.649Z,100395.16
2023-02-04T18:19:29.434Z,100400.13
2023-02-04T18:21:58.312Z,100392.16
2023-02-04T18:24:35.953Z,100402.69
2023-02-04T18:27:20.115Z,100400.50
2023-02-04T18:29:50.687Z,100396.41
2023-02-04T18:32:29.198Z,100397.56
2023-02-04T18:34:57.634Z,100395.88
2023-02-04T18:37:33.834Z,100392.63
2023-02-04T18:40:09.667Z,100401.75
2023-02-04T18:42:38.913Z,100406.25
2023-02-04T18:45:25.491Z,100402.94
2023-02-04T18:48:20.961Z,100409.00
2023-02-04T18:50:52.218Z,100411.56
2023-02-04T18:53:23.150Z,100417.75
2023-02-04T18:55:51.740Z,100409.75
2023-02-04T18:58:39.498Z,100415.75
2023-02-04T19:01:12.710Z,100418.13
2023-02-04T19:03:46.847Z,100413.09
2023-02-04T19:06:32.201Z,100421.13
2023-02-04T19:09:14.445Z,100415.09
2023-02-04T19:11:47.214Z,100420.13
2023-02-04T19:14:36.377Z,100416.75
2023-02-04T19:17:22.038Z,100424.25
2023-02-04T19:19:57.652Z,100421.09
2023-02-04T19:22:49.987Z,100418.72
2023-02-04T19:25:46.459Z,100417.75
2023-02-04T19:28:28.952Z,100414.72
2023-02-04T19:31:03.631Z,100426.41
2023-02-04T19:33:37.997Z,100423.47
2023-02-04T19:36:34.175Z,100425.78
2023-02-04T19:39:03.584Z,100413.81
2023-02-04T19:41:46.738Z,100427.16
2023-02-04T19:44:13.659Z,100427.88
2023-02-04T19:46:41.483Z,100426.69
2023-02-04T19:49:25.677Z,100417.53
2023-02-04T19:51:54.756Z,100425.88
2023-02-04T19:54:24.233Z,100429.03
2023-02-04T19:56:55.297Z,100429.72
2023-02-04T19:59:33.253Z,100440.91
2023-02-04T20:02:38.430Z,100433.91
2023-02-04T20:05:19.713Z,100431.59
2023-02-04T20:07:46.234Z,100441.59
2023-02-04T20:10:27.360Z,100442.47
2023-02-04T20:13:12.518Z,100443.63
2023-02-04T20:15:39.138Z,100426.28
2023-02-04T20:18:19.930Z,100436.94
2023-02-04T20:20:46.997Z,100428.97
2023-02-04T20:23:28.495Z,100441.00
2023-02-04T20:25:55.939Z,100441.00
2023-02-04T20:28:36.233Z,100451.34
2023-02-04T20:31:34.556Z,100461.22
2023-02-04T20:34:01.318Z,100449.50
2023-02-04T20:36:43.098Z,100458.69
2023-02-04T20:39:09.625Z,100463.72
2023-02-04T20:41:38.091Z,100461.03
2023-02-04T20:44:27.749Z,100463.88
2023-02-04T20:47:27.276Z,100459.69
2023-02-04T20:49:58.538Z,100459.38
2023-02-04T20:52:40.043Z,100456.72
2023-02-04T20:55:30.042Z,100460.06
2023-02-04T20:58:12.442Z,100462.38
2023-02-04T21:00:40.535Z,100468.03
2023-02-04T21:03:13.037Z,100468.03
2023-02-04T21:05:40.193Z,100472.56
2023-02-04T21:08:27.722Z,100472.72
2023-02-04T21:10:54.283Z,100483.06
2023-02-04T21:13:20.815Z,100468.53
2023-02-04T21:15:47.474Z,100471.06
2023-02-04T21:18:13.996Z,100484.59
2023-02-04T21:20:40.489Z,100482.56
2023-02-04T21:23:07.103Z,100479.41
2023-02-04T21:25:33.852Z,100483.72
2023-02-04T21:28:00.708Z,100489.75
2023-02-04T21:30:30.325Z,100492.75
2023-02-04T21:32:58.131Z,100484.41
2023-02-04T21:35:24.917Z,100486.06
2023-02-04T21:37:52.625Z,100490.41
2023-02-04T21:40:22.070Z,100495.09
2023-02-04T21:42:49.402Z,100486.72
2023-02-04T21:45:17.562Z,100494.06
2023-02-04T21:47:45.256Z,100496.59
2023-02-04T21:50:14.493Z,100500.75
2023-02-04T21:52:41.980Z,100504.94
2023-02-04T21:55:10.150Z,100494.41
2023-02-04T21:57:37.131Z,100495.75
2023-02-04T22:00:05.927Z,100501.44
2023-02-04T22:02:32.555Z,100504.44
2023-02-04T22:04:59.158Z,100498.75
2023-02-04T22:07:25.676Z,100499.41
2023-02-04T22:09:52.435Z,100499.09
2023-02-04T22:12:19.769Z,100502.75
2023-02-04T22:14:46.349Z,100502.44
2023-02-04T22:17:12.844Z,100504.94
2023-02-04T22:19:39.335Z,100496.22
2023-02-04T22:22:05.859Z,100500.41
2023-02-04T22:24:32.364Z,100509.56
2023-02-04T22:26:59.457Z,100508.75
2023-02-04T22:29:29.911Z,100495.75
2023-02-04T22:31:56.509Z,100509.72
2023-02-04T22:34:23.155Z,100509.56
2023-02-04T22:36:49.612Z,100504.84
2023-02-04T22:39:16.079Z,100512.03
2023-02-04T22:41:42.604Z,100507.00
2023-02-04T22:44:09.162Z,100511.63
2023-02-04T22:46:35.939Z,100517.34
2023-02-04T22:49:02.610Z,100516.63
2023-02-04T22:51:29.105Z,100504.94
2023-02-04T22:53:55.636Z,100506.69
2023-02-04T22:56:22.117Z,100506.78
2023-02-04T22:58:48.585Z,100508.31
2023-02-04T23:01:15.177Z,100507.69
2023-02-04T23:03:41.648Z,100513.97
2023-02-04T23:06:08.414Z,100504.94
2023-02-04T23:08:34.904Z,100513.47
2023-02-04T23:11:01.439Z,100521.13
2023-02-04T23:13:28.041Z,100519.13
2023-02-04T23:15:54.543Z,100519.03
2023-02-04T23:18:21.048Z,100510.22
2023-02-04T23:20:47.649Z,100514.44
2023-02-04T23:23:17.475Z,100514.25
2023-02-04T23:25:45.795Z,100505.25
2023-02-04T23:28:12.625Z,100517.53
2023-02-04T23:30:39.694Z,100508.69
2023-02-04T23:33:06.253Z,100519.16
2023-02-04T23:35:33.396Z,100518.47
2023-02-04T23:38:01.539Z,100514.44
2023-02-04T23:40:28.507Z,100511.50
2023-02-04T23:42:55.050Z,100520.75
2023-02-04T23:45:21.566Z,100514.63
2023-02-04T23:47:48.108Z,100512.50
2023-02-04T23:50:14.836Z,100515.53
2023-02-04T23:52:41.445Z,100505.56
2023-02-04T23:55:08.113Z,100514.53
2023-02-04T23:57:34.671Z,100515.16
